Weather at Phoenix Children's Hospital Heliport

Public forecast

Using degrees Fahrenheit for public forecast. Weather courtesy of forecast.io.

Closest aviation weather report (METAR) to Phoenix Children's Hospital Heliport

Closest report is Phoenix Sky Harbor International Airport, 3.2 nm (5.9 km) SE.

2024/05/19 07:51 (retrieved 27 minutes ago)

KPHX 190751Z 24008KT 10SM CLR 29/M02 A2980 RMK AO2 SLP069 T02891022

Closest aviation forecast (TAF) to Phoenix Children's Hospital Heliport

Closest forecast is Phoenix Sky Harbor International Airport, 3.2 nm (5.9 km) SE.

2024/05/19 06:30 (retrieved 2 hours ago)

TAF KPHX 190528Z 1906/2012 26008KT P6SM SKC FM191000 11006KT P6SM SKC FM191900 26009KT P6SM SKC FM192200 27011G21KT P6SM SKC FM200300 25007KT P6SM SKC FM201000 11006KT P6SM SCT200